Time;durP1;ratioP1;P1;durP2;ratioP2;P2;SDS_P1;SDS_P2;PMS_P1;PMS_P2;Temp;Humidity;BMP_temperature;BMP_pressure;BME280_temperature;BME280_humidity;BME280_pressure;Samples;Min_cycle;Max_cycle;Signal;HPM_P1;HPM_P2
2022/06/20 00:02:58;;;;;;;6.03;1.33;;;;;;;12.60;100.00;101345.59;10258656;28;20035;-80
2022/06/20 00:07:59;;;;;;;4.43;1.50;;;;;;;12.37;100.00;101304.44;10277295;28;20054;-82
2022/06/20 00:13:00;;;;;;;4.47;1.50;;;;;;;11.69;100.00;101199.69;10289556;28;20469;-82
2022/06/20 00:18:03;;;;;;;5.85;1.65;;;;;;;12.54;100.00;101323.69;10257386;28;20039;-82
2022/06/20 00:23:03;;;;;;;8.40;1.60;;;;;;;12.55;100.00;101323.44;10248440;28;20054;-82
2022/06/20 00:28:04;;;;;;;7.05;2.00;;;;;;;12.18;100.00;101290.94;10253609;28;20035;-81
2022/06/20 00:33:05;;;;;;;5.22;1.45;;;;;;;12.36;100.00;101273.22;10251904;28;20039;-81
2022/06/20 00:38:06;;;;;;;8.48;1.50;;;;;;;12.51;100.00;101292.75;10235383;28;20043;-81
2022/06/20 00:43:09;;;;;;;7.22;1.85;;;;;;;12.49;100.00;101303.22;10269190;28;20039;-81
2022/06/20 00:48:25;;;;;;;9.95;1.30;;;;;;;12.52;100.00;101335.81;10259201;28;20043;-81
2022/06/20 00:53:39;;;;;;;12.00;2.13;;;;;;;12.53;100.00;101300.78;10256845;28;20069;-81
2022/06/20 00:58:47;;;;;;;8.73;1.88;;;;;;;12.41;100.00;101298.13;10248062;28;20038;-82
2022/06/20 01:03:53;;;;;;;7.53;1.60;;;;;;;12.51;100.00;101325.06;10276418;28;20398;-81
2022/06/20 01:08:58;;;;;;;5.32;1.52;;;;;;;12.54;100.00;101338.34;10280057;28;20322;-82
2022/06/20 01:13:58;;;;;;;4.57;1.60;;;;;;;12.55;100.00;101355.75;10290173;28;20046;-81
2022/06/20 01:19:02;;;;;;;7.60;2.03;;;;;;;12.40;100.00;101314.94;10247522;28;20556;-82
2022/06/20 01:24:11;;;;;;;9.43;2.15;;;;;;;12.59;100.00;101323.75;10290870;28;20042;-81
2022/06/20 01:29:12;;;;;;;11.65;2.88;;;;;;;12.34;100.00;101278.19;10274441;28;20042;-81
2022/06/20 01:34:16;;;;;;;8.02;1.80;;;;;;;12.16;100.00;101276.56;10276249;28;20038;-81
2022/06/20 01:39:17;;;;;;;10.13;1.63;;;;;;;12.18;100.00;101315.78;10277975;28;20038;-81
2022/06/20 01:44:17;;;;;;;7.85;1.65;;;;;;;12.15;100.00;101307.16;10265232;28;20047;-82
2022/06/20 01:49:20;;;;;;;8.63;2.10;;;;;;;12.17;100.00;101325.13;10282517;28;20031;-81
2022/06/20 01:54:20;;;;;;;9.30;1.95;;;;;;;11.95;100.00;101321.47;10267444;28;20039;-81
2022/06/20 01:59:45;;;;;;;6.15;2.40;;;;;;;11.99;100.00;101323.50;10266745;28;20062;-81
2022/06/20 02:04:46;;;;;;;4.30;2.13;;;;;;;11.87;100.00;101329.06;10264016;28;20074;-81
2022/06/20 02:09:46;;;;;;;7.90;1.90;;;;;;;11.82;100.00;101331.75;10264262;28;20051;-81
2022/06/20 02:14:52;;;;;;;4.95;2.05;;;;;;;11.39;100.00;101261.56;10279075;28;20047;-82
2022/06/20 02:19:54;;;;;;;7.30;1.97;;;;;;;11.64;100.00;101326.50;10265237;28;20074;-81
2022/06/20 02:24:56;;;;;;;7.97;2.20;;;;;;;11.63;100.00;101344.13;10265584;28;20578;-82
2022/06/20 02:29:57;;;;;;;4.53;1.80;;;;;;;11.48;100.00;101342.78;10296369;28;20031;-80
2022/06/20 02:34:58;;;;;;;7.43;2.50;;;;;;;11.40;100.00;101351.44;10280159;28;20301;-81
2022/06/20 02:40:00;;;;;;;8.75;2.38;;;;;;;11.18;100.00;101353.25;10279735;28;20047;-81
2022/06/20 02:45:01;;;;;;;8.60;2.05;;;;;;;11.08;100.00;101364.94;10279796;28;20043;-82
2022/06/20 02:50:02;;;;;;;6.38;2.05;;;;;;;11.00;100.00;101374.41;10280448;28;20129;-82
2022/06/20 02:55:03;;;;;;;9.20;2.00;;;;;;;10.59;100.00;101328.66;10275911;28;20053;-83
2022/06/20 03:00:08;;;;;;;10.20;2.22;;;;;;;10.69;100.00;101361.94;10279803;28;20067;-80
2022/06/20 03:05:08;;;;;;;4.20;2.00;;;;;;;10.68;100.00;101366.56;10247263;28;20043;-81
2022/06/20 03:10:27;;;;;;;11.00;3.05;;;;;;;10.59;100.00;101362.53;10279078;28;20644;-80
2022/06/20 03:15:28;;;;;;;7.03;2.10;;;;;;;10.43;100.00;101357.78;10223641;28;20051;-80
2022/06/20 03:20:29;;;;;;;9.65;2.50;;;;;;;9.86;100.00;101256.59;10254843;28;20039;-81
2022/06/20 03:25:29;;;;;;;5.55;2.42;;;;;;;10.09;100.00;101300.59;10263497;28;20039;-81
2022/06/20 03:30:31;;;;;;;7.63;2.53;;;;;;;10.41;100.00;101366.28;10279111;28;20038;-81
2022/06/20 03:35:32;;;;;;;12.80;2.58;;;;;;;10.30;100.00;101353.38;10278010;28;20145;-81
2022/06/20 03:40:33;;;;;;;8.07;3.13;;;;;;;10.38;100.00;101360.44;10261293;28;20038;-80
2022/06/20 03:45:39;;;;;;;9.32;2.58;;;;;;;10.46;100.00;101360.91;10245715;28;20084;-82
2022/06/20 03:50:44;;;;;;;7.20;3.10;;;;;;;10.41;100.00;101340.66;10263100;28;20039;-82
2022/06/20 03:56:07;;;;;;;8.45;3.28;;;;;;;10.54;100.00;101367.09;10261546;28;20046;-82
2022/06/20 04:01:16;;;;;;;10.25;2.47;;;;;;;10.42;100.00;101343.19;10277509;28;20058;-81
2022/06/20 04:06:27;;;;;;;6.32;2.95;;;;;;;10.53;100.00;101341.47;10277676;28;20050;-81
2022/06/20 04:11:33;;;;;;;7.50;3.38;;;;;;;10.52;100.00;101348.06;10293468;28;20073;-81
2022/06/20 04:16:41;;;;;;;12.73;3.58;;;;;;;10.53;100.00;101340.66;10245289;28;20112;-80
2022/06/20 04:21:49;;;;;;;9.45;3.88;;;;;;;10.53;100.00;101324.97;10261460;28;20234;-80
2022/06/20 04:27:01;;;;;;;6.95;3.53;;;;;;;10.70;100.00;101336.88;10290826;28;20050;-80
2022/06/20 04:32:03;;;;;;;10.15;3.53;;;;;;;10.62;100.00;101311.66;10261269;28;20394;-81
2022/06/20 04:37:17;;;;;;;9.55;4.97;;;;;;;10.52;100.00;101284.72;10276278;28;20051;-79
2022/06/20 04:42:27;;;;;;;14.05;5.50;;;;;;;11.00;100.00;101335.84;10261803;28;20578;-81
2022/06/20 04:47:43;;;;;;;10.23;4.97;;;;;;;10.87;100.00;101287.38;10259797;28;20946;-81
2022/06/20 04:52:44;;;;;;;9.57;5.32;;;;;;;11.27;100.00;101326.97;10291578;28;20047;-80
2022/06/20 04:57:45;;;;;;;10.48;4.72;;;;;;;11.25;100.00;101288.63;10260084;28;20804;-80
2022/06/20 05:02:47;;;;;;;13.07;3.42;;;;;;;11.42;100.00;101299.66;10250571;28;20047;-81
2022/06/20 05:07:47;;;;;;;12.40;3.65;;;;;;;11.50;100.00;101292.91;10259818;28;20038;-81
2022/06/20 05:13:11;;;;;;;8.75;4.18;;;;;;;11.56;100.00;101304.84;10275280;28;20389;-82
2022/06/20 05:18:37;;;;;;;11.85;3.67;;;;;;;11.68;100.00;101297.34;10235880;28;20047;-81
2022/06/20 05:23:55;;;;;;;7.03;3.47;;;;;;;11.47;100.00;101236.34;10235474;28;20045;-80
2022/06/20 05:28:56;;;;;;;10.52;3.22;;;;;;;11.84;100.00;101271.63;10219886;28;20031;-82
2022/06/20 05:34:05;;;;;;;9.73;3.13;;;;;;;11.97;100.00;101283.44;10240467;28;20142;-81
2022/06/20 05:39:26;;;;;;;6.32;3.33;;;;;;;12.27;100.00;101300.44;10242386;28;20050;-81
2022/06/20 05:44:27;;;;;;;8.85;3.33;;;;;;;12.50;100.00;101317.84;10257413;28;20146;-81
2022/06/20 05:49:43;;;;;;;11.07;2.80;;;;;;;12.75;100.00;101322.03;10256944;28;20539;-81
2022/06/20 05:54:49;;;;;;;14.80;4.68;;;;;;;13.05;100.00;101322.38;10237580;28;20043;-81
2022/06/20 05:59:53;;;;;;;6.40;2.50;;;;;;;13.34;100.00;101318.56;10264462;28;20093;-80
2022/06/20 06:05:14;;;;;;;10.55;2.33;;;;;;;13.68;100.00;101339.34;10273915;28;20111;-80
2022/06/20 06:10:35;;;;;;;11.48;3.13;;;;;;;14.15;100.00;101346.03;10234105;28;20395;-80
2022/06/20 06:15:39;;;;;;;14.60;3.00;;;;;;;14.43;100.00;101335.69;10266190;28;20068;-80
2022/06/20 06:20:46;;;;;;;11.05;2.97;;;;;;;14.73;100.00;101337.78;10224033;28;20042;-81
2022/06/20 06:25:46;;;;;;;5.82;2.72;;;;;;;15.16;100.00;101340.44;10283013;28;20039;-81
2022/06/20 06:31:11;;;;;;;13.60;3.53;;;;;;;15.52;100.00;101336.59;10261484;28;20533;-81
2022/06/20 06:36:11;;;;;;;9.32;3.83;;;;;;;15.04;100.00;101352.59;10280091;28;20042;-81
2022/06/20 06:41:17;;;;;;;17.40;3.10;;;;;;;14.71;100.00;101354.69;10289861;28;20050;-81
2022/06/20 06:46:25;;;;;;;8.80;2.92;;;;;;;14.63;100.00;101357.97;10265527;28;20046;-81
2022/06/20 06:51:31;;;;;;;8.85;2.60;;;;;;;14.40;100.00;101352.84;10264744;28;20047;-81
2022/06/20 06:56:35;;;;;;;6.55;2.67;;;;;;;14.45;100.00;101334.31;10241293;28;20042;-81
2022/06/20 07:01:38;;;;;;;10.63;2.70;;;;;;;15.14;100.00;101358.16;10239315;28;20047;-80
2022/06/20 07:06:43;;;;;;;9.65;2.92;;;;;;;15.85;100.00;101364.94;10260650;28;20067;-82
2022/06/20 07:11:47;;;;;;;12.95;3.03;;;;;;;16.21;100.00;101337.13;10264112;28;20042;-81
2022/06/20 07:16:53;;;;;;;9.52;2.10;;;;;;;16.72;100.00;101342.53;10280287;28;20047;-82
2022/06/20 07:21:54;;;;;;;10.90;3.75;;;;;;;15.89;100.00;101345.78;10295655;28;20063;-80
2022/06/20 07:27:11;;;;;;;8.40;3.03;;;;;;;15.24;100.00;101349.03;10294644;28;20126;-81
2022/06/20 07:32:13;;;;;;;7.70;2.20;;;;;;;15.21;100.00;101340.44;10268194;28;20115;-79
2022/06/20 07:37:20;;;;;;;9.23;2.33;;;;;;;15.93;100.00;101358.81;10227936;28;20078;-80
2022/06/20 07:42:32;;;;;;;7.50;2.50;;;;;;;16.15;100.00;101338.25;10249146;28;20039;-80
2022/06/20 07:47:35;;;;;;;9.27;2.17;;;;;;;16.51;100.00;101329.81;10269890;28;20101;-80
2022/06/20 07:52:39;;;;;;;12.18;2.15;;;;;;;17.16;97.45;101290.88;10256383;28;20042;-80
2022/06/20 07:57:52;;;;;;;7.32;2.22;;;;;;;17.21;97.34;101315.88;10242090;28;20047;-79
2022/06/20 08:02:52;;;;;;;16.33;2.83;;;;;;;16.21;100.00;101367.69;10254136;28;20058;-79
2022/06/20 08:08:02;;;;;;;9.13;2.00;;;;;;;15.76;100.00;101363.84;10272669;28;20043;-80
2022/06/20 08:13:12;;;;;;;17.95;3.17;;;;;;;15.49;100.00;101376.00;10271915;28;20031;-79
2022/06/20 08:18:13;;;;;;;8.55;2.17;;;;;;;15.93;100.00;101367.16;10277655;28;20039;-80
2022/06/20 08:23:18;;;;;;;9.10;2.13;;;;;;;17.00;100.00;101347.72;10236241;28;20044;-78
2022/06/20 08:28:23;;;;;;;6.60;1.65;;;;;;;17.05;98.52;101356.03;10240203;28;20492;-79
2022/06/20 08:33:48;;;;;;;8.27;1.92;;;;;;;16.50;96.32;101365.13;10252902;28;20063;-80
2022/06/20 08:39:07;;;;;;;5.22;1.40;;;;;;;16.68;97.23;101366.47;10258391;28;20054;-80
2022/06/20 08:44:26;;;;;;;4.13;1.10;;;;;;;17.19;88.95;101342.34;10243685;28;20031;-80
2022/06/20 08:49:55;;;;;;;2.35;1.17;;;;;;;17.72;90.79;101360.03;10259128;28;20090;-79
2022/06/20 08:55:21;;;;;;;4.85;0.90;;;;;;;18.04;87.06;101349.50;10262683;28;20039;-79
2022/06/20 09:00:34;;;;;;;5.40;0.88;;;;;;;17.75;85.89;101347.50;10271101;28;20155;-81
2022/06/20 09:06:00;;;;;;;4.43;1.00;;;;;;;18.02;83.77;101358.13;10240275;28;20053;-79
2022/06/20 09:11:20;;;;;;;5.53;1.10;;;;;;;18.49;82.19;101356.56;10268108;28;20706;-80
2022/06/20 09:16:23;;;;;;;6.90;1.63;;;;;;;18.09;85.36;101375.38;10275762;28;20073;-79
2022/06/20 09:21:46;;;;;;;5.80;1.00;;;;;;;17.89;85.98;101373.59;10257868;28;20043;-79
2022/06/20 09:27:09;;;;;;;2.88;1.00;;;;;;;17.65;84.37;101375.41;10284951;28;20046;-79
2022/06/20 09:32:37;;;;;;;6.60;1.75;;;;;;;18.57;84.19;101369.03;10288672;28;20050;-81
2022/06/20 09:37:50;;;;;;;8.27;1.30;;;;;;;18.39;84.03;101380.94;10289980;28;20433;-79
2022/06/20 09:43:09;;;;;;;2.22;0.77;;;;;;;17.27;83.16;101373.16;10292513;28;20118;-80
2022/06/20 09:48:12;;;;;;;5.20;1.30;;;;;;;17.49;87.73;101385.84;10289330;28;20074;-80
2022/06/20 09:53:23;;;;;;;3.72;1.05;;;;;;;18.16;83.05;101369.44;10293591;28;20130;-81
2022/06/20 09:58:32;;;;;;;8.35;1.35;;;;;;;17.81;87.02;101385.31;10298436;28;20057;-80
2022/06/20 10:03:51;;;;;;;3.72;1.15;;;;;;;17.81;85.36;101381.72;10283392;28;20054;-80
2022/06/20 10:09:15;;;;;;;5.35;1.33;;;;;;;17.97;85.18;101338.69;10279705;28;20338;-80
2022/06/20 10:14:33;;;;;;;4.60;1.77;;;;;;;18.85;83.91;101370.13;10242793;28;20063;-83
2022/06/20 10:19:38;;;;;;;3.15;1.10;;;;;;;18.52;80.75;101383.00;10258553;28;20496;-81
2022/06/20 10:25:04;;;;;;;7.20;1.48;;;;;;;18.32;82.92;101384.88;10245476;28;20049;-80
2022/06/20 10:30:12;;;;;;;3.78;1.02;;;;;;;19.02;80.89;101399.50;10274272;28;20039;-79
2022/06/20 10:35:17;;;;;;;5.38;1.45;;;;;;;18.26;81.93;101396.38;10295068;28;20043;-78
2022/06/20 10:40:37;;;;;;;3.60;1.00;;;;;;;17.82;85.85;101431.56;10270729;28;20063;-78
2022/06/20 10:45:43;;;;;;;2.22;1.00;;;;;;;18.30;82.85;101415.00;10278157;28;20054;-79
2022/06/20 10:50:47;;;;;;;4.85;1.45;;;;;;;18.20;81.77;101403.97;10277865;28;20054;-78
2022/06/20 10:55:59;;;;;;;5.97;1.50;;;;;;;17.62;83.32;101406.63;10256668;28;20094;-78
2022/06/20 11:01:24;;;;;;;5.95;1.30;;;;;;;17.94;83.82;101422.84;10271390;28;20527;-78
2022/06/20 11:07:02;;;;;;;7.30;1.90;;;;;;;18.02;84.27;101433.38;10266796;28;20058;-79
2022/06/20 11:12:12;;;;;;;4.10;1.15;;;;;;;19.24;78.99;101401.69;10273500;28;20263;-79
2022/06/20 11:17:25;;;;;;;4.03;1.02;;;;;;;20.17;72.51;101390.75;10278881;28;20043;-78
2022/06/20 11:22:35;;;;;;;5.22;1.00;;;;;;;19.70;73.64;101417.75;10294864;28;20411;-79
2022/06/20 11:27:49;;;;;;;3.65;0.60;;;;;;;19.54;72.71;101398.47;10263157;28;20054;-78
2022/06/20 11:34:00;;;;;;;4.93;0.90;;;;;;;18.64;74.42;101421.63;10295388;28;20035;-78
2022/06/20 11:38:52;;;;;;;6.43;1.15;;;;;;;18.45;78.53;101432.72;10272172;28;20797;-78
2022/06/20 11:44:08;;;;;;;4.70;1.30;;;;;;;18.55;76.76;101427.03;10276250;28;20051;-79
2022/06/20 11:49:49;;;;;;;3.13;0.93;;;;;;;19.26;73.19;101413.38;10270882;28;20031;-78
2022/06/20 11:55:04;;;;;;;5.60;1.63;;;;;;;19.98;72.33;101401.16;10280643;28;20043;-78
2022/06/20 12:00:25;;;;;;;9.80;1.27;;;;;;;21.15;72.21;101418.53;10278660;28;20122;-79
2022/06/20 12:05:47;;;;;;;6.15;1.25;;;;;;;20.86;69.32;101421.66;10276248;28;20066;-79
2022/06/20 12:10:58;;;;;;;3.80;1.00;;;;;;;21.37;68.47;101422.53;10255835;28;20043;-78
2022/06/20 12:16:43;;;;;;;4.03;1.10;;;;;;;21.12;65.84;101421.94;10294356;28;20091;-80
2022/06/20 12:27:18;;;;;;;3.92;1.20;;;;;;;20.40;69.42;101413.28;10259135;28;20039;-80
2022/06/20 12:32:24;;;;;;;8.27;1.50;;;;;;;20.03;71.87;101448.56;10292567;28;20124;-77
2022/06/20 12:37:33;;;;;;;4.20;1.45;;;;;;;20.61;69.51;101428.59;10265370;28;20047;-80
2022/06/20 12:42:46;;;;;;;3.38;1.20;;;;;;;21.94;67.63;101417.28;10273891;28;20071;-78
2022/06/20 12:48:08;;;;;;;3.15;0.80;;;;;;;21.79;61.46;101409.28;10238264;28;20169;-79
2022/06/20 12:53:25;;;;;;;6.38;1.20;;;;;;;21.68;66.18;101441.47;10270934;28;20055;-78
2022/06/20 12:58:52;;;;;;;3.72;1.15;;;;;;;21.51;63.62;101434.56;10253590;28;20421;-78
2022/06/20 13:04:14;;;;;;;6.07;1.08;;;;;;;21.53;64.10;101446.28;10273415;28;20086;-78
2022/06/20 13:09:45;;;;;;;5.82;1.20;;;;;;;19.65;69.63;101482.94;10271969;28;20042;-79
2022/06/20 13:15:04;;;;;;;5.65;1.63;;;;;;;18.95;76.23;101509.50;10265921;28;20091;-78
2022/06/20 13:20:21;;;;;;;9.20;2.00;;;;;;;18.81;79.54;101507.69;10272486;28;20126;-78
2022/06/20 13:25:59;;;;;;;5.22;1.58;;;;;;;18.55;80.29;101513.47;10270681;28;20043;-78
2022/06/20 13:31:15;;;;;;;7.68;1.55;;;;;;;18.05;81.67;101519.16;10269323;28;20057;-78
2022/06/20 13:36:29;;;;;;;5.03;1.23;;;;;;;18.56;82.17;101506.75;10287655;28;20038;-78
2022/06/20 13:41:43;;;;;;;3.75;1.10;;;;;;;19.12;79.77;101519.34;10273804;28;20039;-79
2022/06/20 13:46:48;;;;;;;6.05;1.00;;;;;;;20.17;74.38;101488.59;10255032;28;20054;-78
2022/06/20 13:51:52;;;;;;;6.88;1.30;;;;;;;20.52;72.69;101494.72;10255252;28;20066;-78
2022/06/20 13:56:56;;;;;;;7.88;1.77;;;;;;;19.12;76.81;101531.34;10268487;28;20047;-78
2022/06/20 14:02:04;;;;;;;6.20;1.50;;;;;;;19.27;79.76;101532.31;10268699;28;20054;-78
2022/06/20 14:07:05;;;;;;;4.63;1.10;;;;;;;19.13;78.23;101521.84;10256044;28;20035;-79
2022/06/20 14:12:07;;;;;;;4.97;1.25;;;;;;;20.83;76.30;101550.19;10254499;28;20042;-78
2022/06/20 14:17:19;;;;;;;4.38;1.40;;;;;;;20.56;74.49;101487.38;10238103;28;20043;-78
2022/06/20 14:22:34;;;;;;;4.40;1.10;;;;;;;19.95;73.29;101536.75;10267073;28;20149;-79
2022/06/20 14:27:35;;;;;;;4.60;1.33;;;;;;;20.67;73.05;101519.69;10250454;28;20058;-79
2022/06/20 14:32:52;;;;;;;6.03;1.50;;;;;;;20.45;72.78;101530.66;10251730;28;20616;-78
2022/06/20 14:37:58;;;;;;;4.07;1.00;;;;;;;21.17;68.62;101516.22;10253635;28;20047;-78
2022/06/20 14:43:06;;;;;;;6.72;1.20;;;;;;;19.89;70.56;101535.16;10273385;28;20067;-80
2022/06/20 14:48:15;;;;;;;2.88;1.20;;;;;;;18.72;74.40;101518.63;10263891;28;20042;-79
2022/06/20 14:53:21;;;;;;;4.63;1.50;;;;;;;18.69;75.24;101556.28;10280038;28;20109;-79
2022/06/20 14:58:21;;;;;;;4.88;1.33;;;;;;;18.31;77.12;101567.22;10277240;28;20130;-80
2022/06/20 15:03:37;;;;;;;3.50;1.40;;;;;;;18.90;77.83;101573.72;10257211;28;20044;-79
2022/06/20 15:08:57;;;;;;;4.90;1.43;;;;;;;21.32;73.29;101552.31;10260578;28;20119;-80
2022/06/20 15:14:13;;;;;;;4.35;1.17;;;;;;;21.86;69.62;101534.97;10258140;28;20099;-81
2022/06/20 15:19:29;;;;;;;2.10;1.07;;;;;;;22.58;68.13;101522.88;10286131;28;20035;-81
2022/06/20 15:24:52;;;;;;;7.03;1.42;;;;;;;21.22;68.34;101534.88;10296333;28;20101;-80
2022/06/20 15:30:07;;;;;;;6.30;1.50;;;;;;;19.55;74.06;101548.16;10295623;28;20075;-80
2022/06/20 15:40:44;;;;;;;5.75;1.83;;;;;;;20.66;72.17;101534.78;10246792;28;20123;-80
2022/06/20 15:45:48;;;;;;;5.35;1.45;;;;;;;22.91;67.16;101522.56;10284221;28;20047;-79
2022/06/20 15:51:07;;;;;;;3.13;1.20;;;;;;;23.53;62.65;101514.06;10278056;28;20054;-79
2022/06/20 15:56:35;;;;;;;4.45;1.00;;;;;;;24.01;58.41;101503.91;10279350;28;20039;-79
2022/06/20 16:01:40;;;;;;;5.78;1.35;;;;;;;24.47;57.33;101499.56;10280357;28;20054;-80
2022/06/20 16:07:02;;;;;;;7.00;1.65;;;;;;;23.68;59.75;101497.91;10255641;28;20054;-79
2022/06/20 16:12:19;;;;;;;4.35;1.48;;;;;;;23.22;59.80;101516.13;10254259;28;20074;-79
2022/06/20 16:17:33;;;;;;;6.18;2.35;;;;;;;22.14;60.56;101516.09;10269110;28;20042;-82
2022/06/20 16:22:34;;;;;;;6.88;2.30;;;;;;;20.62;65.59;101530.13;10268456;28;20055;-79
2022/06/20 16:27:37;;;;;;;7.13;2.22;;;;;;;20.38;69.04;101538.59;10281002;28;20467;-80
2022/06/20 16:32:38;;;;;;;10.50;1.85;;;;;;;19.47;73.20;101568.38;10268893;28;20066;-80
2022/06/20 16:37:39;;;;;;;8.10;1.50;;;;;;;17.88;76.41;101553.00;10277277;28;20637;-79
2022/06/20 16:43:02;;;;;;;7.05;1.90;;;;;;;17.50;80.65;101580.41;10261511;28;20038;-79
2022/06/20 16:48:03;;;;;;;6.38;1.92;;;;;;;17.49;83.25;101598.25;10278170;28;20051;-80
2022/06/20 16:53:28;;;;;;;7.22;2.25;;;;;;;17.81;84.26;101585.84;10293274;28;20042;-80
2022/06/20 16:58:52;;;;;;;10.20;2.60;;;;;;;17.11;86.82;101583.03;10287836;28;20051;-80
2022/06/20 17:04:01;;;;;;;9.55;1.80;;;;;;;17.51;87.66;101592.41;10276096;28;20038;-82
2022/06/20 17:09:44;;;;;;;8.88;2.05;;;;;;;17.48;89.54;101593.78;10277653;28;20039;-80
2022/06/20 17:14:54;;;;;;;10.63;1.63;;;;;;;17.39;89.30;101589.09;10247922;28;20045;-81
2022/06/20 17:20:02;;;;;;;6.72;1.65;;;;;;;17.82;88.96;101579.16;10278970;28;20051;-81
2022/06/20 17:25:18;;;;;;;4.45;1.10;;;;;;;18.04;86.79;101576.00;10239186;28;20044;-80
2022/06/20 17:30:29;;;;;;;2.70;1.10;;;;;;;17.49;84.57;101586.28;10265760;28;20427;-83
2022/06/20 17:35:42;;;;;;;7.55;1.23;;;;;;;17.17;88.02;101598.59;10261877;28;20498;-81
2022/06/20 17:40:54;;;;;;;3.67;1.27;;;;;;;17.24;89.12;101595.50;10268997;28;20050;-81
2022/06/20 17:46:16;;;;;;;8.15;1.63;;;;;;;16.86;91.32;101608.91;10289691;28;20054;-80
2022/06/20 17:51:31;;;;;;;6.90;1.35;;;;;;;16.85;91.79;101608.09;10252064;28;20121;-79
2022/06/20 17:57:08;;;;;;;5.90;1.15;;;;;;;16.81;93.91;101620.06;10289442;28;20039;-79
2022/06/20 18:02:15;;;;;;;8.43;1.40;;;;;;;16.58;93.44;101602.78;10262721;28;20039;-79
2022/06/20 18:07:19;;;;;;;6.72;1.10;;;;;;;16.55;91.82;101617.22;10276621;28;20057;-79
2022/06/20 18:12:25;;;;;;;7.97;0.90;;;;;;;16.38;93.53;101622.22;10261212;28;20035;-81
2022/06/20 18:17:32;;;;;;;8.93;1.02;;;;;;;16.15;92.93;101621.59;10271537;28;20070;-79
2022/06/20 18:22:34;;;;;;;12.23;1.10;;;;;;;16.22;94.25;101621.34;10259566;28;20043;-78
2022/06/20 18:27:51;;;;;;;7.93;1.15;;;;;;;15.96;93.44;101612.94;10280512;28;20532;-80
2022/06/20 18:32:52;;;;;;;;;;;;;;;15.86;95.98;101613.72;10294970;28;20034;-79
2022/06/20 18:38:09;;;;;;;9.68;1.23;;;;;;;15.74;100.00;101622.28;10263209;28;19925;-80
2022/06/20 18:43:10;;;;;;;6.10;1.33;;;;;;;15.81;100.00;101613.69;10258965;28;20070;-81
2022/06/20 18:48:21;;;;;;;5.10;1.05;;;;;;;15.70;100.00;101620.28;10279518;28;20063;-81
2022/06/20 18:53:31;;;;;;;9.85;2.25;;;;;;;15.67;100.00;101623.63;10254782;28;20139;-80
2022/06/20 18:58:56;;;;;;;4.40;1.13;;;;;;;15.57;100.00;101618.03;10287433;28;20132;-80
2022/06/20 19:04:31;;;;;;;9.02;1.30;;;;;;;15.54;100.00;101623.00;10278139;28;20031;-80
2022/06/20 19:09:41;;;;;;;7.45;1.55;;;;;;;15.43;100.00;101615.72;10291652;28;20046;-78
2022/06/20 19:15:19;;;;;;;5.75;1.35;;;;;;;15.43;100.00;101637.91;10258745;28;20055;-79
2022/06/20 19:20:36;;;;;;;13.98;2.00;;;;;;;15.33;100.00;101654.50;10257394;28;20107;-79
2022/06/20 19:25:43;;;;;;;6.73;1.17;;;;;;;15.17;100.00;101649.94;10265194;28;20107;-78
2022/06/20 19:30:50;;;;;;;6.70;1.48;;;;;;;14.93;100.00;101633.69;10267235;28;20046;-79
2022/06/20 19:35:55;;;;;;;9.90;1.58;;;;;;;14.90;100.00;101628.66;10263312;28;20373;-79
2022/06/20 19:41:01;;;;;;;9.05;1.33;;;;;;;14.91;100.00;101649.75;10258425;28;20049;-79
2022/06/20 19:46:03;;;;;;;6.73;1.60;;;;;;;14.86;100.00;101645.00;10293354;28;20038;-79
2022/06/20 19:51:24;;;;;;;10.35;1.25;;;;;;;14.76;100.00;101647.69;10236081;28;20053;-79
2022/06/20 19:56:28;;;;;;;7.13;1.40;;;;;;;14.54;100.00;101640.25;10286849;28;20043;-79
2022/06/20 20:01:29;;;;;;;7.05;1.40;;;;;;;14.63;100.00;101645.34;10247784;28;20054;-79
2022/06/20 20:06:29;;;;;;;5.25;1.30;;;;;;;14.58;100.00;101648.06;10275666;28;20042;-79
2022/06/20 20:11:32;;;;;;;8.65;2.08;;;;;;;14.41;100.00;101637.06;10260667;28;20089;-79
2022/06/20 20:16:47;;;;;;;9.30;1.73;;;;;;;14.31;100.00;101663.56;10255767;28;20051;-79
2022/06/20 20:21:58;;;;;;;12.10;2.17;;;;;;;14.00;100.00;101640.22;10289574;28;20047;-78
2022/06/20 20:27:32;;;;;;;9.95;1.73;;;;;;;13.80;100.00;101632.50;10263518;28;20061;-79
2022/06/20 20:33:21;;;;;;;8.85;1.95;;;;;;;13.73;100.00;101648.47;10263839;28;20121;-78
2022/06/20 20:39:01;;;;;;;13.57;2.45;;;;;;;13.42;100.00;101628.69;10287398;28;20062;-78
2022/06/20 20:44:10;;;;;;;6.75;2.00;;;;;;;13.41;100.00;101660.19;10279453;28;20059;-79
2022/06/20 20:49:19;;;;;;;10.35;2.40;;;;;;;13.30;100.00;101653.66;10288963;28;20034;-78
2022/06/20 20:54:19;;;;;;;8.13;2.05;;;;;;;13.18;100.00;101658.44;10252544;28;20050;-79
2022/06/20 20:59:29;;;;;;;7.47;2.25;;;;;;;13.10;100.00;101665.25;10250426;28;20502;-78
2022/06/20 21:04:39;;;;;;;10.90;2.03;;;;;;;13.00;100.00;101662.31;10284090;28;20050;-79
2022/06/20 21:09:45;;;;;;;13.68;1.92;;;;;;;12.84;100.00;101657.59;10243935;28;20039;-79
2022/06/20 21:14:52;;;;;;;14.63;2.20;;;;;;;12.71;100.00;101662.38;10270422;28;20391;-78
2022/06/20 21:20:09;;;;;;;10.93;2.45;;;;;;;12.67;100.00;101671.38;10284654;28;20047;-79
2022/06/20 21:25:10;;;;;;;;;;;;;;;12.52;100.00;101672.78;10266444;28;20503;-79
2022/06/20 21:30:14;;;;;;;10.30;1.88;;;;;;;12.41;100.00;101672.84;10290507;28;19918;-78
2022/06/20 21:35:17;;;;;;;12.00;2.40;;;;;;;12.29;100.00;101679.25;10255283;28;20055;-78
2022/06/20 21:40:19;;;;;;;12.15;2.42;;;;;;;12.15;100.00;101677.84;10247552;28;20035;-79
2022/06/20 21:45:28;;;;;;;8.25;1.65;;;;;;;12.09;100.00;101685.22;10303102;28;20162;-78
2022/06/20 21:50:35;;;;;;;21.25;4.57;;;;;;;11.89;100.00;101669.06;10268818;28;20459;-78
2022/06/20 21:55:36;;;;;;;12.10;2.28;;;;;;;11.83;100.00;101664.50;10294357;28;20561;-78
2022/06/20 22:00:36;;;;;;;14.57;2.35;;;;;;;11.76;100.00;101672.06;10258023;28;20032;-78
2022/06/20 22:05:39;;;;;;;11.70;2.58;;;;;;;11.74;100.00;101677.00;10290749;28;20042;-79
2022/06/20 22:10:44;;;;;;;12.13;2.22;;;;;;;11.59;100.00;101669.19;10311740;28;20039;-78
2022/06/20 22:15:45;;;;;;;12.23;2.03;;;;;;;11.26;100.00;101634.81;10255374;28;20467;-81
2022/06/20 22:20:48;;;;;;;16.05;2.35;;;;;;;11.45;100.00;101668.63;10266494;28;20135;-78
2022/06/20 22:25:55;;;;;;;13.95;2.67;;;;;;;11.47;100.00;101687.69;10296431;28;20049;-78
2022/06/20 22:30:56;;;;;;;;;;;;;;;11.52;100.00;101687.81;10273232;28;20049;-78
2022/06/20 22:35:57;;;;;;;9.02;2.40;;;;;;;11.52;100.00;101663.00;10274952;28;19934;-78
2022/06/20 22:40:58;;;;;;;9.00;1.92;;;;;;;11.70;100.00;101679.41;10267406;28;20063;-78
2022/06/20 22:46:03;;;;;;;13.35;2.13;;;;;;;11.72;100.00;101684.69;10240226;28;20043;-78
2022/06/20 22:51:06;;;;;;;13.10;2.17;;;;;;;11.67;100.00;101676.28;10259537;28;20067;-78
2022/06/20 22:56:22;;;;;;;12.65;3.20;;;;;;;11.58;100.00;101680.50;10238658;28;20046;-77
2022/06/20 23:01:34;;;;;;;9.25;3.35;;;;;;;11.54;100.00;101691.16;10291351;28;20034;-77
2022/06/20 23:06:35;;;;;;;8.25;2.50;;;;;;;11.50;100.00;101671.50;10264189;28;20207;-78
2022/06/20 23:11:35;;;;;;;13.32;2.67;;;;;;;11.41;100.00;101666.56;10252204;28;20031;-77
2022/06/20 23:21:55;;;;;;;11.45;2.50;;;;;;;11.25;100.00;101690.22;10261159;28;20061;-78
2022/06/20 23:26:56;;;;;;;4.30;2.42;;;;;;;11.03;100.00;101665.13;10270698;28;20043;-77
2022/06/20 23:31:57;;;;;;;12.52;2.35;;;;;;;10.99;100.00;101670.28;10267519;28;20057;-77
2022/06/20 23:36:58;;;;;;;10.88;2.40;;;;;;;10.95;100.00;101657.22;10288506;28;20034;-78
2022/06/20 23:41:58;;;;;;;12.65;2.47;;;;;;;10.80;100.00;101654.94;10262617;28;20050;-78
2022/06/20 23:46:59;;;;;;;8.70;2.20;;;;;;;10.63;100.00;101649.28;10254074;28;20035;-78
2022/06/20 23:51:59;;;;;;;6.65;2.67;;;;;;;10.58;100.00;101657.38;10267307;28;20136;-78